• vieta
  • image
  • image
  • image
mod_vvisit_countermod_vvisit_countermod_vvisit_countermod_vvisit_countermod_vvisit_countermod_vvisit_counter
mod_vvisit_counterŠiandien465
mod_vvisit_counterVakar534
mod_vvisit_counterŠią savaitę999
mod_vvisit_counterPraėjusią savaitę5522
mod_vvisit_counterŠį mėnesį11484
mod_vvisit_counterPraėjusį mėnesį23031
mod_vvisit_counterViso997441

Mes turime: 17 svečius online
Jūsų IP: 54.161.116.225
 , 
Šiandien: Spa 16, 2018
Oro uostas / Naujienos / 2015 Sausis

2015 Sausis

Š.m. sausio 20 d. tarptautiniame Šiaulių oro uoste apsilankė Šiaulių universiteto Verslo administravimo studijų programos logistikos valdymo specializacijos 4 kurso studentai lydimi Vadybos katedros dėstytojos lekt. Inetos Beniušienės. Studentai stebėjo Izraelio aviakompanijos „CAL Cargo Airlines“ orlaivio Boeing 747-400 aptarnavimo procesą bei iš arčiau susipažino su antžeminių paslaugų aptarnavimo specifika.

 

Studentų atsiliepimus ir įspūdžius skaitykite čia:

http://www.su.lt/smf/naujienos/16053-tarptautiniame-iauli-oro-uoste

Šiandien

Antradienis, 16 Spalis 2018

Orų prognozė aviacijai

[source: ADDS]
METAR
EYSA 161420Z 22003KT CAVOK 17/06 Q1022 BLU NOSIG =
TAF EYSA 161404Z 1615/1624 19008KT CAVOK
TAF
TAF EYSA 161404Z 1615/1624 19008KT CAVOK =
SR / SS: 05:00 / 15:26 UTC (EYSA 2018-10-16)

Paieška

Lankytojai

Mes turime 17 svečius online

tic logo lt